createdAt,value
2023-05-18T00:02:27.102Z,10.90
2023-05-18T00:04:55.331Z,10.90
2023-05-18T00:07:23.358Z,10.80
2023-05-18T00:09:52.780Z,10.90
2023-05-18T00:12:20.837Z,10.80
2023-05-18T00:14:48.825Z,10.70
2023-05-18T00:17:17.151Z,10.70
2023-05-18T00:19:46.622Z,10.60
2023-05-18T00:22:18.114Z,10.60
2023-05-18T00:24:46.736Z,10.50
2023-05-18T00:27:16.075Z,10.60
2023-05-18T00:29:44.020Z,10.60
2023-05-18T00:32:11.868Z,10.50
2023-05-18T00:34:39.825Z,10.50
2023-05-18T00:37:07.724Z,10.50
2023-05-18T00:39:35.769Z,10.40
2023-05-18T00:42:03.864Z,10.40
2023-05-18T00:44:33.160Z,10.40
2023-05-18T00:47:02.249Z,10.40
2023-05-18T00:49:30.453Z,10.30
2023-05-18T00:51:58.753Z,10.20
2023-05-18T00:54:27.317Z,10.20
2023-05-18T00:56:55.371Z,10.20
2023-05-18T00:59:23.306Z,10.20
2023-05-18T01:01:52.870Z,10.20
2023-05-18T01:04:21.763Z,10.20
2023-05-18T01:06:50.095Z,10.10
2023-05-18T01:09:18.087Z,10.20
2023-05-18T01:11:57.077Z,10.20
2023-05-18T01:14:32.382Z,10.20
2023-05-18T01:17:11.919Z,10.00
2023-05-18T01:20:07.159Z,10.00
2023-05-18T01:22:50.630Z,10.00
2023-05-18T01:25:25.405Z,9.90
2023-05-18T01:27:56.231Z,9.90
2023-05-18T01:30:24.890Z,9.80
2023-05-18T01:32:52.847Z,10.00
2023-05-18T01:35:20.786Z,9.90
2023-05-18T01:37:48.744Z,9.80
2023-05-18T01:40:16.776Z,9.90
2023-05-18T01:42:47.465Z,9.90
2023-05-18T01:45:22.694Z,9.90
2023-05-18T01:47:54.482Z,9.90
2023-05-18T01:50:30.871Z,10.00
2023-05-18T01:53:04.254Z,9.90
2023-05-18T01:55:33.253Z,9.70
2023-05-18T01:58:02.075Z,9.60
2023-05-18T02:00:31.788Z,9.60
2023-05-18T02:02:59.767Z,9.60
2023-05-18T02:05:27.800Z,9.60
2023-05-18T02:07:55.968Z,9.50
2023-05-18T02:10:23.951Z,9.60
2023-05-18T02:12:52.874Z,9.60
2023-05-18T02:15:20.847Z,9.60
2023-05-18T02:17:51.313Z,9.50
2023-05-18T02:20:19.564Z,9.50
2023-05-18T02:22:47.481Z,9.50
2023-05-18T02:25:15.443Z,9.60
2023-05-18T02:27:43.401Z,9.60
2023-05-18T02:30:14.446Z,9.50
2023-05-18T02:32:47.250Z,9.50
2023-05-18T02:35:18.138Z,9.50
2023-05-18T02:37:47.394Z,9.50
2023-05-18T02:40:16.089Z,9.40
2023-05-18T02:42:44.213Z,9.30
2023-05-18T02:45:12.557Z,9.20
2023-05-18T02:47:40.577Z,9.30
2023-05-18T02:50:09.520Z,9.40
2023-05-18T02:52:38.853Z,9.40
2023-05-18T02:55:07.490Z,9.30
2023-05-18T02:57:36.146Z,9.20
2023-05-18T03:00:10.016Z,9.10
2023-05-18T03:02:38.904Z,9.00
2023-05-18T03:05:07.921Z,8.90
2023-05-18T03:07:35.891Z,8.90
2023-05-18T03:10:07.769Z,8.90
2023-05-18T03:12:35.733Z,8.80
2023-05-18T03:15:03.986Z,8.70
2023-05-18T03:17:31.882Z,8.70
2023-05-18T03:19:59.697Z,8.70
2023-05-18T03:22:27.682Z,8.60
2023-05-18T03:24:55.614Z,8.70
2023-05-18T03:27:26.793Z,8.70
2023-05-18T03:29:54.781Z,8.60
2023-05-18T03:32:22.936Z,8.70
2023-05-18T03:34:51.161Z,8.60
2023-05-18T03:37:19.112Z,8.60
2023-05-18T03:39:47.075Z,8.40
2023-05-18T03:42:14.972Z,8.60
2023-05-18T03:44:44.393Z,8.60
2023-05-18T03:47:12.737Z,8.70
2023-05-18T03:49:40.679Z,8.60
2023-05-18T03:52:09.011Z,8.60
2023-05-18T03:54:36.912Z,8.60
2023-05-18T03:57:05.052Z,8.70
2023-05-18T03:59:32.933Z,8.70
2023-05-18T04:02:02.438Z,8.50
2023-05-18T04:04:31.102Z,8.60
2023-05-18T04:07:02.001Z,8.60
2023-05-18T04:09:30.210Z,8.60
2023-05-18T04:11:58.205Z,8.70
2023-05-18T04:14:28.213Z,8.70
2023-05-18T04:16:56.810Z,8.80
2023-05-18T04:19:26.223Z,8.80
2023-05-18T04:21:54.532Z,8.80
2023-05-18T04:24:22.714Z,8.80
2023-05-18T04:26:50.560Z,8.90
2023-05-18T04:29:18.507Z,9.00
2023-05-18T04:31:48.922Z,9.10
2023-05-18T04:34:17.913Z,9.20
2023-05-18T04:36:47.564Z,9.30
2023-05-18T04:39:15.522Z,9.40
2023-05-18T04:41:43.523Z,9.50
2023-05-18T04:44:14.050Z,9.60
2023-05-18T04:46:42.008Z,9.80
2023-05-18T04:49:10.307Z,9.80
2023-05-18T04:51:42.341Z,9.80
2023-05-18T04:54:13.058Z,10.10
2023-05-18T04:56:41.066Z,10.10
2023-05-18T04:59:09.668Z,10.20
2023-05-18T05:01:37.831Z,10.30
2023-05-18T05:04:06.430Z,10.50
2023-05-18T05:06:34.420Z,10.70
2023-05-18T05:09:02.399Z,10.70
2023-05-18T05:11:31.824Z,10.80
2023-05-18T05:13:59.852Z,11.10
2023-05-18T05:16:28.069Z,11.20
2023-05-18T05:18:56.125Z,11.30
2023-05-18T05:21:24.212Z,11.40
2023-05-18T05:23:52.266Z,11.50
2023-05-18T05:26:21.431Z,11.80
2023-05-18T05:28:51.264Z,11.80
2023-05-18T05:31:19.202Z,12.10
2023-05-18T05:33:47.128Z,12.30
2023-05-18T05:36:15.070Z,12.50
2023-05-18T05:38:42.965Z,12.70
2023-05-18T05:41:10.839Z,13.00
2023-05-18T05:43:38.821Z,13.10
2023-05-18T05:46:08.321Z,13.20
2023-05-18T05:48:36.237Z,13.30
2023-05-18T05:51:04.059Z,13.40
2023-05-18T05:53:32.042Z,13.50
2023-05-18T05:56:00.049Z,13.50
2023-05-18T05:58:28.222Z,13.70
2023-05-18T06:00:56.224Z,13.70
2023-05-18T06:03:25.685Z,13.80
2023-05-18T06:05:53.966Z,13.90
2023-05-18T06:08:24.373Z,14.10
2023-05-18T06:10:52.372Z,14.20
2023-05-18T06:13:20.225Z,14.20
2023-05-18T06:15:48.115Z,14.40
2023-05-18T06:18:16.054Z,14.80
2023-05-18T06:20:45.379Z,14.80
2023-05-18T06:23:13.389Z,14.90
2023-05-18T06:25:41.324Z,15.20
2023-05-18T06:28:09.217Z,15.30
2023-05-18T06:30:37.256Z,15.50
2023-05-18T06:33:05.426Z,15.80
2023-05-18T06:35:33.421Z,15.50
2023-05-18T06:38:03.273Z,15.80
2023-05-18T06:40:31.290Z,16.10
2023-05-18T06:42:59.257Z,16.30
2023-05-18T06:45:27.245Z,16.20
2023-05-18T06:47:55.390Z,16.20
2023-05-18T06:50:23.348Z,16.10
2023-05-18T06:52:51.460Z,16.00
2023-05-18T06:55:20.708Z,16.00
2023-05-18T06:57:48.518Z,16.00
2023-05-18T07:00:17.091Z,16.30
2023-05-18T07:02:45.839Z,16.50
2023-05-18T07:05:15.188Z,16.80
2023-05-18T07:07:43.097Z,17.30
2023-05-18T07:10:11.576Z,17.30
2023-05-18T07:12:42.764Z,17.10
2023-05-18T07:15:11.622Z,17.30
2023-05-18T07:17:39.602Z,17.30
2023-05-18T07:20:08.758Z,17.60
2023-05-18T07:22:36.641Z,17.30
2023-05-18T07:25:04.958Z,17.60
2023-05-18T07:27:33.266Z,17.70
2023-05-18T07:30:02.729Z,17.70
2023-05-18T07:32:31.752Z,17.90
2023-05-18T07:35:00.561Z,17.90
2023-05-18T07:37:28.402Z,18.40
2023-05-18T07:39:56.276Z,18.50
2023-05-18T07:42:24.292Z,18.60
2023-05-18T07:44:52.243Z,18.50
2023-05-18T07:47:22.244Z,18.50
2023-05-18T07:49:50.564Z,18.60
2023-05-18T07:52:18.496Z,18.60
2023-05-18T07:54:46.612Z,18.80
2023-05-18T07:57:15.222Z,18.90
2023-05-18T07:59:43.063Z,18.80
2023-05-18T08:02:11.314Z,19.00
2023-05-18T08:04:40.774Z,18.00
2023-05-18T08:07:08.975Z,17.90
2023-05-18T08:09:36.854Z,18.10
2023-05-18T08:12:05.085Z,18.60
2023-05-18T08:14:33.217Z,18.60
2023-05-18T08:17:01.052Z,18.50
2023-05-18T08:19:29.036Z,18.80
2023-05-18T08:21:59.228Z,18.90
2023-05-18T08:24:27.052Z,19.10
2023-05-18T08:26:54.869Z,19.10
2023-05-18T08:29:22.854Z,19.10
2023-05-18T08:31:50.799Z,19.40
2023-05-18T08:34:18.693Z,18.90
2023-05-18T08:36:46.613Z,18.80
2023-05-18T08:39:15.885Z,19.10
2023-05-18T08:41:56.917Z,18.70
2023-05-18T08:44:31.804Z,18.70
2023-05-18T08:47:00.264Z,19.00
2023-05-18T08:49:28.590Z,18.90
2023-05-18T08:51:57.591Z,18.90
2023-05-18T08:54:27.768Z,19.10
2023-05-18T08:56:55.680Z,19.50
2023-05-18T08:59:26.613Z,20.00
2023-05-18T09:01:55.421Z,20.40
2023-05-18T09:04:23.553Z,20.10
2023-05-18T09:06:55.246Z,20.40
2023-05-18T09:09:23.572Z,20.20
2023-05-18T09:11:53.562Z,20.10
2023-05-18T09:14:25.722Z,19.80
2023-05-18T09:16:53.976Z,19.90
2023-05-18T09:19:22.280Z,19.30
2023-05-18T09:21:50.323Z,19.60
2023-05-18T09:24:19.335Z,19.60
2023-05-18T09:26:47.440Z,19.60
2023-05-18T09:29:20.839Z,20.00
2023-05-18T09:31:49.663Z,20.00
2023-05-18T09:34:19.025Z,18.90
2023-05-18T09:36:49.505Z,19.00
2023-05-18T09:39:17.411Z,18.30
2023-05-18T09:41:45.465Z,18.60
2023-05-18T09:44:13.529Z,19.20
2023-05-18T09:46:43.242Z,19.50
2023-05-18T09:49:11.686Z,19.60
2023-05-18T09:51:40.681Z,19.80
2023-05-18T09:54:10.422Z,19.90
2023-05-18T09:56:39.436Z,19.80
2023-05-18T09:59:11.531Z,19.80
2023-05-18T10:01:55.911Z,20.00
2023-05-18T10:04:35.836Z,19.00
2023-05-18T10:07:03.799Z,19.50
2023-05-18T10:09:31.733Z,19.70
2023-05-18T10:11:59.615Z,19.60
2023-05-18T10:14:31.438Z,19.00
2023-05-18T10:17:14.373Z,18.70
2023-05-18T10:19:47.230Z,19.30
2023-05-18T10:22:17.490Z,19.60
2023-05-18T10:24:49.434Z,20.00
2023-05-18T10:27:20.848Z,19.80
2023-05-18T10:29:50.783Z,19.30
2023-05-18T10:32:20.782Z,19.90
2023-05-18T10:34:51.598Z,20.40
2023-05-18T10:37:23.352Z,20.10
2023-05-18T10:39:53.231Z,20.00
2023-05-18T10:42:22.100Z,20.30
2023-05-18T10:44:53.732Z,20.80
2023-05-18T10:47:21.845Z,21.00
2023-05-18T10:49:51.472Z,21.20
2023-05-18T10:52:19.551Z,21.40
2023-05-18T10:54:47.722Z,21.20
2023-05-18T10:57:18.770Z,20.60
2023-05-18T10:59:48.853Z,20.20
2023-05-18T11:02:19.576Z,20.40
2023-05-18T11:04:48.641Z,18.60
2023-05-18T11:07:17.934Z,19.80
2023-05-18T11:09:46.273Z,20.20
2023-05-18T11:12:14.930Z,20.30
2023-05-18T11:14:49.950Z,20.50
2023-05-18T11:17:22.503Z,20.40
2023-05-18T11:20:13.120Z,20.60
2023-05-18T11:22:50.050Z,20.50
2023-05-18T11:25:46.557Z,19.80
2023-05-18T11:28:15.044Z,19.90
2023-05-18T11:30:48.504Z,20.30
2023-05-18T11:33:19.324Z,19.60
2023-05-18T11:36:01.478Z,20.50
2023-05-18T11:38:53.941Z,20.60
2023-05-18T11:41:32.933Z,20.80
2023-05-18T11:44:16.081Z,21.00
2023-05-18T11:46:54.751Z,21.20
2023-05-18T11:49:25.054Z,21.40
2023-05-18T11:51:58.891Z,21.50
2023-05-18T11:54:28.737Z,21.70
2023-05-18T11:56:56.972Z,21.40
2023-05-18T11:59:32.810Z,21.30
2023-05-18T12:02:03.645Z,21.70
2023-05-18T12:04:33.631Z,21.60
2023-05-18T12:07:07.218Z,21.90
2023-05-18T12:09:37.011Z,22.20
2023-05-18T12:12:05.169Z,22.00
2023-05-18T12:14:36.037Z,21.70
2023-05-18T12:17:04.104Z,22.10
2023-05-18T12:19:38.400Z,21.90
2023-05-18T12:22:12.919Z,22.10
2023-05-18T12:24:43.800Z,22.20
2023-05-18T12:27:13.189Z,22.40
2023-05-18T12:29:42.743Z,22.50
2023-05-18T12:32:12.390Z,21.70
2023-05-18T12:34:40.815Z,22.30
2023-05-18T12:37:08.932Z,22.50
2023-05-18T12:39:37.676Z,22.50
2023-05-18T12:42:15.453Z,22.10
2023-05-18T12:44:44.840Z,22.20
2023-05-18T12:47:13.253Z,22.10
2023-05-18T12:49:42.465Z,22.10
2023-05-18T12:52:12.418Z,21.10
2023-05-18T12:54:55.232Z,21.60
2023-05-18T12:57:27.744Z,21.90
2023-05-18T12:59:55.611Z,22.20
2023-05-18T13:02:41.335Z,22.30
2023-05-18T13:05:10.850Z,22.30
2023-05-18T13:07:41.084Z,22.30
2023-05-18T13:10:10.580Z,22.40
2023-05-18T13:12:44.871Z,22.60
2023-05-18T13:15:14.578Z,22.80
2023-05-18T13:17:59.496Z,22.80
2023-05-18T13:20:36.688Z,22.90
2023-05-18T13:23:06.162Z,23.00
2023-05-18T13:25:34.370Z,22.70
2023-05-18T13:28:03.812Z,22.70
2023-05-18T13:30:32.050Z,22.80
2023-05-18T13:33:00.635Z,22.50
2023-05-18T13:35:28.783Z,21.50
2023-05-18T13:37:56.900Z,21.90
2023-05-18T13:40:25.917Z,22.30
2023-05-18T13:42:54.308Z,22.40
2023-05-18T13:45:23.985Z,22.50
2023-05-18T13:47:53.517Z,22.50
2023-05-18T13:50:22.971Z,22.70
2023-05-18T13:52:51.028Z,22.70
2023-05-18T13:55:19.122Z,22.40
2023-05-18T13:57:47.329Z,22.60
2023-05-18T14:00:17.132Z,22.60
2023-05-18T14:02:46.785Z,22.80
2023-05-18T14:05:15.368Z,22.80
2023-05-18T14:07:44.043Z,22.90
2023-05-18T14:10:14.273Z,22.90
2023-05-18T14:12:43.287Z,23.00
2023-05-18T14:15:13.676Z,22.80
2023-05-18T14:17:42.400Z,22.90
2023-05-18T14:20:12.863Z,23.10
2023-05-18T14:22:41.072Z,22.90
2023-05-18T14:25:09.795Z,23.20
2023-05-18T14:27:37.732Z,22.90
2023-05-18T14:30:07.187Z,23.10
2023-05-18T14:32:35.171Z,23.10
2023-05-18T14:35:03.790Z,22.60
2023-05-18T14:37:33.941Z,22.50
2023-05-18T14:40:01.789Z,22.60
2023-05-18T14:42:29.605Z,22.80
2023-05-18T14:44:57.449Z,22.40
2023-05-18T14:47:25.689Z,22.40
2023-05-18T14:49:53.644Z,22.20
2023-05-18T14:52:21.481Z,22.20
2023-05-18T14:54:50.865Z,22.40
2023-05-18T14:57:19.345Z,22.40
2023-05-18T14:59:47.176Z,22.50
2023-05-18T15:02:15.095Z,22.50
2023-05-18T15:04:43.032Z,22.60
2023-05-18T15:07:10.919Z,22.60
2023-05-18T15:09:38.874Z,22.70
2023-05-18T15:12:08.500Z,22.80
2023-05-18T15:14:37.960Z,22.50
2023-05-18T15:17:07.352Z,22.60
2023-05-18T15:19:35.285Z,22.70
2023-05-18T15:22:03.107Z,22.80
2023-05-18T15:24:30.980Z,22.50
2023-05-18T15:26:58.909Z,22.70
2023-05-18T15:29:29.261Z,22.50
2023-05-18T15:31:57.220Z,22.50
2023-05-18T15:34:25.167Z,22.30
2023-05-18T15:36:53.460Z,22.20
2023-05-18T15:39:21.315Z,22.00
2023-05-18T15:41:49.559Z,22.10
2023-05-18T15:44:17.456Z,22.10
2023-05-18T15:46:46.682Z,21.80
2023-05-18T15:49:14.533Z,21.60
2023-05-18T15:51:42.533Z,21.70
2023-05-18T15:54:10.533Z,21.60
2023-05-18T15:56:38.454Z,21.70
2023-05-18T15:59:08.260Z,22.00
2023-05-18T16:01:36.202Z,21.80
2023-05-18T16:04:05.577Z,21.80
2023-05-18T16:06:34.447Z,21.80
2023-05-18T16:09:02.431Z,21.70
2023-05-18T16:11:30.494Z,21.80
2023-05-18T16:14:00.336Z,21.90
2023-05-18T16:16:28.219Z,21.70
2023-05-18T16:18:56.201Z,21.40
2023-05-18T16:21:25.644Z,21.60
2023-05-18T16:23:53.691Z,21.40
2023-05-18T16:26:22.055Z,21.40
2023-05-18T16:28:50.183Z,21.30
2023-05-18T16:31:18.358Z,21.20
2023-05-18T16:33:46.244Z,21.30
2023-05-18T16:36:14.094Z,21.20
2023-05-18T16:38:47.512Z,21.40
2023-05-18T16:41:16.942Z,21.30
2023-05-18T16:43:44.819Z,21.10
2023-05-18T16:46:13.279Z,21.20
2023-05-18T16:48:41.474Z,21.20
2023-05-18T16:51:09.722Z,21.20
2023-05-18T16:53:38.112Z,21.10
2023-05-18T16:56:07.658Z,21.20
2023-05-18T16:58:36.272Z,21.30
2023-05-18T17:01:09.823Z,21.40
2023-05-18T17:03:44.038Z,21.30
2023-05-18T17:06:12.301Z,21.20
2023-05-18T17:08:40.102Z,21.20
2023-05-18T17:11:09.304Z,21.30
2023-05-18T17:13:37.176Z,21.30
2023-05-18T17:16:06.581Z,21.30
2023-05-18T17:18:34.466Z,21.10
2023-05-18T17:24:23.197Z,21.30
2023-05-18T17:27:19.117Z,21.10
2023-05-18T17:30:24.347Z,21.00
2023-05-18T17:33:00.651Z,20.90
2023-05-18T17:35:28.743Z,20.90
2023-05-18T17:37:56.972Z,21.00
2023-05-18T17:40:25.031Z,21.00
2023-05-18T17:42:54.408Z,20.70
2023-05-18T17:45:22.324Z,20.40
2023-05-18T17:47:51.110Z,20.40
2023-05-18T17:50:19.112Z,20.40
2023-05-18T17:56:17.658Z,20.50
2023-05-18T17:59:45.070Z,20.50
2023-05-18T18:02:14.197Z,20.50
2023-05-18T18:04:42.219Z,20.50
2023-05-18T18:07:10.150Z,20.50
2023-05-18T18:09:38.034Z,20.20
2023-05-18T18:12:06.478Z,20.00
2023-05-18T18:14:35.924Z,20.00
2023-05-18T18:17:03.808Z,20.00
2023-05-18T18:19:32.042Z,19.90
2023-05-18T18:22:00.035Z,19.90
2023-05-18T18:24:28.021Z,19.90
2023-05-18T18:26:56.123Z,20.00
2023-05-18T18:29:29.927Z,20.00
2023-05-18T18:32:00.604Z,19.80
2023-05-18T18:34:28.858Z,19.80
2023-05-18T18:36:59.785Z,19.80
2023-05-18T18:39:28.414Z,19.80
2023-05-18T18:41:56.304Z,19.60
2023-05-18T18:44:24.308Z,19.70
2023-05-18T18:46:54.385Z,19.60
2023-05-18T18:53:04.311Z,19.70
2023-05-18T18:55:34.550Z,19.50
2023-05-18T18:58:03.293Z,19.60
2023-05-18T19:00:32.325Z,19.60
2023-05-18T19:03:00.375Z,19.60
2023-05-18T19:05:31.026Z,19.50
2023-05-18T19:07:59.165Z,19.50
2023-05-18T19:10:27.460Z,19.20
2023-05-18T19:12:57.366Z,19.30
2023-05-18T19:15:25.225Z,19.20
2023-05-18T19:17:54.412Z,19.40
2023-05-18T19:20:23.748Z,19.30
2023-05-18T19:22:54.323Z,19.30
2023-05-18T19:25:28.052Z,19.20
2023-05-18T19:27:56.790Z,19.10
2023-05-18T19:30:25.090Z,19.00
2023-05-18T19:32:54.245Z,19.10
2023-05-18T19:35:23.671Z,19.00
2023-05-18T19:37:53.543Z,19.10
2023-05-18T19:40:23.317Z,19.10
2023-05-18T19:42:51.382Z,18.80
2023-05-18T19:45:21.642Z,18.70
2023-05-18T19:47:49.702Z,18.80
2023-05-18T19:50:17.803Z,18.90
2023-05-18T19:52:45.910Z,18.90
2023-05-18T19:55:15.788Z,18.70
2023-05-18T19:57:44.218Z,18.70
2023-05-18T20:00:16.538Z,18.70
2023-05-18T20:02:44.723Z,18.70
2023-05-18T20:05:13.335Z,18.60
2023-05-18T20:07:42.004Z,18.60
2023-05-18T20:10:10.266Z,18.40
2023-05-18T20:12:41.315Z,18.30
2023-05-18T20:15:10.224Z,18.20
2023-05-18T20:17:38.478Z,18.10
2023-05-18T20:20:08.162Z,18.10
2023-05-18T20:22:36.706Z,18.10
2023-05-18T20:25:05.725Z,18.00
2023-05-18T20:27:34.568Z,17.90
2023-05-18T20:30:07.630Z,17.80
2023-05-18T20:32:36.850Z,17.90
2023-05-18T20:35:05.632Z,17.70
2023-05-18T20:37:34.749Z,17.60
2023-05-18T20:40:09.278Z,17.70
2023-05-18T20:42:40.949Z,17.50
2023-05-18T20:45:12.481Z,17.50
2023-05-18T20:47:41.833Z,17.50
2023-05-18T20:50:11.202Z,17.50
2023-05-18T20:52:39.368Z,17.40
2023-05-18T20:55:09.471Z,17.30
2023-05-18T20:57:40.176Z,17.30
2023-05-18T21:00:12.176Z,17.30
2023-05-18T21:02:41.631Z,17.20
2023-05-18T21:05:10.289Z,17.20
2023-05-18T21:07:40.282Z,17.10
2023-05-18T21:10:08.903Z,17.00
2023-05-18T21:12:36.904Z,16.90
2023-05-18T21:15:05.686Z,16.70
2023-05-18T21:17:35.358Z,16.70
2023-05-18T21:20:03.727Z,16.60
2023-05-18T21:22:31.973Z,16.50
2023-05-18T21:25:00.008Z,16.50
2023-05-18T21:27:27.998Z,16.40
2023-05-18T21:29:58.961Z,16.30
2023-05-18T21:32:27.192Z,16.50
2023-05-18T21:34:57.283Z,16.60
2023-05-18T21:37:26.038Z,16.40
2023-05-18T21:39:54.374Z,16.40
2023-05-18T21:42:22.925Z,16.40
2023-05-18T21:44:51.213Z,16.40
2023-05-18T21:47:19.634Z,16.30
2023-05-18T21:49:48.233Z,16.10
2023-05-18T21:52:19.115Z,16.10
2023-05-18T21:54:47.502Z,16.00
2023-05-18T21:57:15.792Z,15.80
2023-05-18T21:59:44.163Z,15.80
2023-05-18T22:02:12.330Z,15.80
2023-05-18T22:04:40.723Z,15.70
2023-05-18T22:07:10.098Z,15.80
2023-05-18T22:09:39.866Z,15.60
2023-05-18T22:12:08.273Z,15.50
2023-05-18T22:14:36.511Z,15.60
2023-05-18T22:17:05.140Z,15.60
2023-05-18T22:19:33.321Z,15.60
2023-05-18T22:22:01.780Z,15.60
2023-05-18T22:24:30.082Z,15.60
2023-05-18T22:26:59.714Z,15.50
2023-05-18T22:29:27.942Z,15.50
2023-05-18T22:31:56.228Z,15.50
2023-05-18T22:34:24.349Z,15.40
2023-05-18T22:36:52.509Z,15.40
2023-05-18T22:39:20.565Z,15.50
2023-05-18T22:41:48.628Z,15.30
2023-05-18T22:44:18.260Z,15.30
2023-05-18T22:46:47.392Z,15.30
2023-05-18T22:49:15.660Z,15.40
2023-05-18T22:51:46.956Z,15.30
2023-05-18T22:54:15.177Z,15.20
2023-05-18T22:56:43.328Z,15.20
2023-05-18T22:59:12.130Z,15.30
2023-05-18T23:01:42.027Z,15.20
2023-05-18T23:04:10.133Z,15.30
2023-05-18T23:06:38.157Z,15.20
2023-05-18T23:09:06.158Z,15.20
2023-05-18T23:11:35.054Z,15.20
2023-05-18T23:14:03.203Z,15.10
2023-05-18T23:16:31.658Z,15.10
2023-05-18T23:19:01.797Z,15.10
2023-05-18T23:21:31.073Z,15.00
2023-05-18T23:23:59.937Z,14.90
2023-05-18T23:26:28.132Z,14.90
2023-05-18T23:28:59.069Z,15.00
2023-05-18T23:31:28.666Z,15.00
2023-05-18T23:33:57.204Z,15.00
2023-05-18T23:36:30.537Z,15.00
2023-05-18T23:39:00.092Z,15.00
2023-05-18T23:41:29.547Z,15.00
2023-05-18T23:43:58.661Z,14.90
2023-05-18T23:46:27.223Z,14.90
2023-05-18T23:48:57.897Z,14.80
2023-05-18T23:51:32.105Z,14.80
2023-05-18T23:54:07.629Z,14.80
2023-05-18T23:56:36.354Z,14.70
2023-05-18T23:59:04.895Z,14.50
